Flight Information

DEPARTURE
LAS VEGAS, NV
Elevation:
1869
Runways:
3L/21R - 10120x200 - CONC
3R/21L - 10051x150 - CONC
Clearance Delivery:
120.9
Ground:
121.8
Tower:
132.55
DESTINATION
,
Elevation:
TPA:
1000 (est.)


6597.2 NM75° True-14° Var60° HDG

Flight Plan:
(click to file on line)

1. Type
2. Aircraft Identification
3. Aircraft Type / Special Equipment
4. True Airspeed
kts
5. Departure Airport
(ICAO code)
6. Arriving Airport
(ICAO code)
7. Cruising Altitude
ft
8. Alternate Airport
(ICAO code)
9. Route of Flight
10. Remarks


00:00:00 Departure ATIS: Destination ATIS:

Clearance Limit:
Route:
Altitude: Expect in minutes
Frequency:
Transponder: (7500 Hijack / 7600 Lost Comms / 7700 Emergency)


KLSV 281158Z AUTO 03018KT 10SM CLR 24/00 A3006 RMK AO2 SLP155 T02431001 10278 20238 52012 $
Time: 2020-09-28T11:58:00Z
1601297905
Winds: 30 @ 18 kts
Visibility: 10.0 sm
Clouds (AGL): CLR
Temperature: 24.3 C
Dew Point: -0.1 C
Pressure: 30.059055 in Hgbr


Notes:

Data extracted from FAA Digital Chart Supplement. Effective: 0901Z Thursday, Sep 10, 2020 to 0901Z Thursday, Nov 5, 2020
Current ATIS data is provided courtisy of PilotEdge.